sensor_id;sensor_type;location;lat;lon;timestamp;temperature;humidity
75113;DHT22;63692;47.338;8.520;2023-05-07T04:22:59;13.40;99.90
75113;DHT22;63692;47.338;8.520;2023-05-07T04:25:25;13.40;99.90
75113;DHT22;63692;47.338;8.520;2023-05-07T04:32:55;13.30;99.90
75113;DHT22;63692;47.338;8.520;2023-05-07T05:08:41;13.60;99.90
75113;DHT22;63692;47.338;8.520;2023-05-07T05:13:37;13.80;99.90
75113;DHT22;63692;47.338;8.520;2023-05-07T05:25:58;13.80;99.90
75113;DHT22;63692;47.338;8.520;2023-05-07T05:28:23;13.90;99.90
75113;DHT22;63692;47.338;8.520;2023-05-07T05:30:49;14.00;99.90
75113;DHT22;63692;47.338;8.520;2023-05-07T05:33:15;13.90;99.90
75113;DHT22;63692;47.338;8.520;2023-05-07T05:35:41;13.90;99.90
75113;DHT22;63692;47.338;8.520;2023-05-07T05:38:08;13.80;99.90
75113;DHT22;63692;47.338;8.520;2023-05-07T05:40:34;13.90;99.90
75113;DHT22;63692;47.338;8.520;2023-05-07T05:43:00;13.80;99.90
75113;DHT22;63692;47.338;8.520;2023-05-07T05:45:25;13.80;99.90
75113;DHT22;63692;47.338;8.520;2023-05-07T05:47:51;13.90;99.90
75113;DHT22;63692;47.338;8.520;2023-05-07T05:50:17;13.90;99.90
75113;DHT22;63692;47.338;8.520;2023-05-07T05:52:42;13.90;99.90
75113;DHT22;63692;47.338;8.520;2023-05-07T05:55:08;13.90;99.90
75113;DHT22;63692;47.338;8.520;2023-05-07T05:57:34;13.90;99.90
75113;DHT22;63692;47.338;8.520;2023-05-07T06:00:01;13.90;99.90
75113;DHT22;63692;47.338;8.520;2023-05-07T06:02:28;13.90;99.90
75113;DHT22;63692;47.338;8.520;2023-05-07T06:04:53;13.90;99.90
75113;DHT22;63692;47.338;8.520;2023-05-07T06:07:19;13.90;99.90
75113;DHT22;63692;47.338;8.520;2023-05-07T06:09:45;14.00;99.90
75113;DHT22;63692;47.338;8.520;2023-05-07T06:12:11;14.00;99.90
75113;DHT22;63692;47.338;8.520;2023-05-07T06:14:37;14.10;99.90
75113;DHT22;63692;47.338;8.520;2023-05-07T06:17:03;14.20;99.90
75113;DHT22;63692;47.338;8.520;2023-05-07T06:19:28;14.20;99.90
75113;DHT22;63692;47.338;8.520;2023-05-07T06:21:54;14.30;99.90
75113;DHT22;63692;47.338;8.520;2023-05-07T06:24:22;14.30;99.90
75113;DHT22;63692;47.338;8.520;2023-05-07T06:26:48;14.20;99.90
75113;DHT22;63692;47.338;8.520;2023-05-07T06:29:14;14.40;99.90
75113;DHT22;63692;47.338;8.520;2023-05-07T06:31:40;14.50;99.90
75113;DHT22;63692;47.338;8.520;2023-05-07T06:34:07;14.50;99.90
75113;DHT22;63692;47.338;8.520;2023-05-07T06:36:33;14.50;99.90
75113;DHT22;63692;47.338;8.520;2023-05-07T06:38:58;14.60;99.90
75113;DHT22;63692;47.338;8.520;2023-05-07T06:41:24;14.60;99.90
75113;DHT22;63692;47.338;8.520;2023-05-07T06:43:51;14.60;99.90
75113;DHT22;63692;47.338;8.520;2023-05-07T06:46:17;14.60;99.90
75113;DHT22;63692;47.338;8.520;2023-05-07T06:48:43;14.70;99.90
75113;DHT22;63692;47.338;8.520;2023-05-07T06:51:08;14.80;99.90
75113;DHT22;63692;47.338;8.520;2023-05-07T06:53:35;14.90;99.90
75113;DHT22;63692;47.338;8.520;2023-05-07T06:56:00;15.00;99.90
75113;DHT22;63692;47.338;8.520;2023-05-07T06:58:26;15.00;99.90
75113;DHT22;63692;47.338;8.520;2023-05-07T07:00:52;15.10;99.90
75113;DHT22;63692;47.338;8.520;2023-05-07T07:03:17;15.20;99.90
75113;DHT22;63692;47.338;8.520;2023-05-07T07:05:43;15.20;99.90
75113;DHT22;63692;47.338;8.520;2023-05-07T07:08:09;15.30;99.90
75113;DHT22;63692;47.338;8.520;2023-05-07T07:10:35;15.40;99.90
75113;DHT22;63692;47.338;8.520;2023-05-07T07:13:01;15.50;99.90
75113;DHT22;63692;47.338;8.520;2023-05-07T07:15:26;15.60;99.90
75113;DHT22;63692;47.338;8.520;2023-05-07T07:17:52;15.60;99.90
75113;DHT22;63692;47.338;8.520;2023-05-07T07:20:18;15.70;99.90
75113;DHT22;63692;47.338;8.520;2023-05-07T07:22:43;15.80;99.90
75113;DHT22;63692;47.338;8.520;2023-05-07T07:25:09;15.90;99.90
75113;DHT22;63692;47.338;8.520;2023-05-07T07:27:36;16.00;99.90
75113;DHT22;63692;47.338;8.520;2023-05-07T07:30:03;16.00;99.90
75113;DHT22;63692;47.338;8.520;2023-05-07T07:32:29;16.00;99.90
75113;DHT22;63692;47.338;8.520;2023-05-07T07:34:54;16.10;99.90
75113;DHT22;63692;47.338;8.520;2023-05-07T07:37:20;16.10;99.90
75113;DHT22;63692;47.338;8.520;2023-05-07T07:39:46;16.10;99.90
75113;DHT22;63692;47.338;8.520;2023-05-07T07:42:11;16.20;99.90
75113;DHT22;63692;47.338;8.520;2023-05-07T07:44:37;16.30;99.90
75113;DHT22;63692;47.338;8.520;2023-05-07T07:47:04;16.40;99.90
75113;DHT22;63692;47.338;8.520;2023-05-07T07:49:30;16.50;99.90
75113;DHT22;63692;47.338;8.520;2023-05-07T07:51:56;16.60;99.90
75113;DHT22;63692;47.338;8.520;2023-05-07T07:54:24;16.70;99.90
75113;DHT22;63692;47.338;8.520;2023-05-07T07:56:50;16.80;99.90
75113;DHT22;63692;47.338;8.520;2023-05-07T07:59:16;16.90;99.90
75113;DHT22;63692;47.338;8.520;2023-05-07T08:01:44;16.90;99.90
75113;DHT22;63692;47.338;8.520;2023-05-07T08:04:10;17.00;99.90
75113;DHT22;63692;47.338;8.520;2023-05-07T08:06:36;17.10;99.90
75113;DHT22;63692;47.338;8.520;2023-05-07T08:09:02;17.00;99.90
75113;DHT22;63692;47.338;8.520;2023-05-07T08:11:28;17.20;99.90
75113;DHT22;63692;47.338;8.520;2023-05-07T08:13:54;17.20;99.90
75113;DHT22;63692;47.338;8.520;2023-05-07T08:16:20;17.30;99.90
75113;DHT22;63692;47.338;8.520;2023-05-07T08:18:46;17.30;99.90
75113;DHT22;63692;47.338;8.520;2023-05-07T08:21:11;17.40;99.90
75113;DHT22;63692;47.338;8.520;2023-05-07T08:23:37;17.30;99.90
75113;DHT22;63692;47.338;8.520;2023-05-07T08:26:03;17.30;99.90
75113;DHT22;63692;47.338;8.520;2023-05-07T08:28:28;17.40;99.90
75113;DHT22;63692;47.338;8.520;2023-05-07T08:30:54;17.40;99.90
75113;DHT22;63692;47.338;8.520;2023-05-07T08:33:22;17.50;99.90
75113;DHT22;63692;47.338;8.520;2023-05-07T08:35:47;17.60;99.90
75113;DHT22;63692;47.338;8.520;2023-05-07T08:38:13;17.60;99.90
75113;DHT22;63692;47.338;8.520;2023-05-07T08:40:39;17.60;99.90
75113;DHT22;63692;47.338;8.520;2023-05-07T08:43:07;17.60;99.90
75113;DHT22;63692;47.338;8.520;2023-05-07T08:45:34;17.80;99.90
75113;DHT22;63692;47.338;8.520;2023-05-07T08:48:05;17.90;99.90
75113;DHT22;63692;47.338;8.520;2023-05-07T08:50:35;18.00;99.90
75113;DHT22;63692;47.338;8.520;2023-05-07T08:53:03;18.10;99.90
75113;DHT22;63692;47.338;8.520;2023-05-07T08:55:30;18.20;99.90
75113;DHT22;63692;47.338;8.520;2023-05-07T08:57:56;18.30;99.90
75113;DHT22;63692;47.338;8.520;2023-05-07T09:00:22;18.30;99.90
75113;DHT22;63692;47.338;8.520;2023-05-07T09:02:47;18.50;99.90
75113;DHT22;63692;47.338;8.520;2023-05-07T09:05:13;18.50;99.90
75113;DHT22;63692;47.338;8.520;2023-05-07T09:07:39;18.50;99.90
75113;DHT22;63692;47.338;8.520;2023-05-07T09:10:05;18.60;99.90
75113;DHT22;63692;47.338;8.520;2023-05-07T09:12:32;18.60;99.90
75113;DHT22;63692;47.338;8.520;2023-05-07T09:14:59;18.70;99.90
75113;DHT22;63692;47.338;8.520;2023-05-07T09:17:25;18.80;99.90
75113;DHT22;63692;47.338;8.520;2023-05-07T09:19:50;18.80;99.90
75113;DHT22;63692;47.338;8.520;2023-05-07T09:22:16;18.90;99.90
75113;DHT22;63692;47.338;8.520;2023-05-07T09:24:48;18.90;99.90
75113;DHT22;63692;47.338;8.520;2023-05-07T09:27:14;18.90;99.90
75113;DHT22;63692;47.338;8.520;2023-05-07T09:29:41;19.00;99.90
75113;DHT22;63692;47.338;8.520;2023-05-07T09:32:07;19.10;99.90
75113;DHT22;63692;47.338;8.520;2023-05-07T09:34:34;19.10;99.90
75113;DHT22;63692;47.338;8.520;2023-05-07T09:37:04;19.20;99.90
75113;DHT22;63692;47.338;8.520;2023-05-07T09:39:47;19.10;99.90
75113;DHT22;63692;47.338;8.520;2023-05-07T09:42:13;19.20;99.90
75113;DHT22;63692;47.338;8.520;2023-05-07T09:44:45;19.30;99.90
75113;DHT22;63692;47.338;8.520;2023-05-07T09:47:18;19.30;99.90
75113;DHT22;63692;47.338;8.520;2023-05-07T09:49:48;19.40;99.90
75113;DHT22;63692;47.338;8.520;2023-05-07T09:52:16;19.40;99.90
75113;DHT22;63692;47.338;8.520;2023-05-07T09:54:43;19.40;99.90
75113;DHT22;63692;47.338;8.520;2023-05-07T09:57:11;19.40;99.90
75113;DHT22;63692;47.338;8.520;2023-05-07T09:59:42;19.50;99.90
75113;DHT22;63692;47.338;8.520;2023-05-07T10:02:09;19.60;99.90
75113;DHT22;63692;47.338;8.520;2023-05-07T10:04:35;19.70;99.90
75113;DHT22;63692;47.338;8.520;2023-05-07T10:07:03;19.70;99.90
75113;DHT22;63692;47.338;8.520;2023-05-07T10:09:30;19.80;99.90
75113;DHT22;63692;47.338;8.520;2023-05-07T10:11:56;19.70;99.90
75113;DHT22;63692;47.338;8.520;2023-05-07T10:14:23;19.60;99.90
75113;DHT22;63692;47.338;8.520;2023-05-07T10:16:49;19.70;99.90
75113;DHT22;63692;47.338;8.520;2023-05-07T10:19:16;19.70;99.90
75113;DHT22;63692;47.338;8.520;2023-05-07T10:21:51;19.70;99.90
75113;DHT22;63692;47.338;8.520;2023-05-07T10:24:20;19.70;99.90
75113;DHT22;63692;47.338;8.520;2023-05-07T10:26:50;19.70;99.90
75113;DHT22;63692;47.338;8.520;2023-05-07T10:32:19;19.80;99.90
75113;DHT22;63692;47.338;8.520;2023-05-07T10:34:53;19.80;99.90
75113;DHT22;63692;47.338;8.520;2023-05-07T10:37:20;19.80;99.90
75113;DHT22;63692;47.338;8.520;2023-05-07T10:42:14;19.80;99.90
75113;DHT22;63692;47.338;8.520;2023-05-07T10:44:40;19.90;99.90
75113;DHT22;63692;47.338;8.520;2023-05-07T10:47:08;19.90;99.90
75113;DHT22;63692;47.338;8.520;2023-05-07T10:52:22;20.00;99.90
75113;DHT22;63692;47.338;8.520;2023-05-07T10:57:43;20.00;99.90
75113;DHT22;63692;47.338;8.520;2023-05-07T11:05:28;20.00;99.90
75113;DHT22;63692;47.338;8.520;2023-05-07T11:07:59;20.10;99.90
75113;DHT22;63692;47.338;8.520;2023-05-07T11:10:54;20.10;99.90
75113;DHT22;63692;47.338;8.520;2023-05-07T11:16:24;20.30;99.90
75113;DHT22;63692;47.338;8.520;2023-05-07T11:18:51;20.40;99.90
75113;DHT22;63692;47.338;8.520;2023-05-07T11:21:33;20.40;99.90
75113;DHT22;63692;47.338;8.520;2023-05-07T11:24:00;20.50;99.90
75113;DHT22;63692;47.338;8.520;2023-05-07T11:26:29;20.60;99.90
75113;DHT22;63692;47.338;8.520;2023-05-07T11:28:55;20.70;99.90
75113;DHT22;63692;47.338;8.520;2023-05-07T11:31:26;20.80;99.90
75113;DHT22;63692;47.338;8.520;2023-05-07T11:33:53;20.90;99.90
75113;DHT22;63692;47.338;8.520;2023-05-07T11:36:19;20.90;99.90
75113;DHT22;63692;47.338;8.520;2023-05-07T11:38:46;20.80;99.90
75113;DHT22;63692;47.338;8.520;2023-05-07T11:41:12;21.00;99.90
75113;DHT22;63692;47.338;8.520;2023-05-07T11:43:37;21.10;99.90
75113;DHT22;63692;47.338;8.520;2023-05-07T11:46:12;21.20;99.90
75113;DHT22;63692;47.338;8.520;2023-05-07T11:48:43;21.30;99.90
75113;DHT22;63692;47.338;8.520;2023-05-07T11:51:10;21.30;99.90
75113;DHT22;63692;47.338;8.520;2023-05-07T11:53:43;21.30;99.90
75113;DHT22;63692;47.338;8.520;2023-05-07T11:56:13;21.30;99.90
75113;DHT22;63692;47.338;8.520;2023-05-07T11:58:40;21.40;99.90
75113;DHT22;63692;47.338;8.520;2023-05-07T12:01:10;21.40;99.90
75113;DHT22;63692;47.338;8.520;2023-05-07T12:03:37;21.50;99.90
75113;DHT22;63692;47.338;8.520;2023-05-07T12:06:08;21.50;99.90
75113;DHT22;63692;47.338;8.520;2023-05-07T12:08:37;21.70;99.90
75113;DHT22;63692;47.338;8.520;2023-05-07T12:11:03;21.60;99.90
75113;DHT22;63692;47.338;8.520;2023-05-07T12:13:32;21.70;99.90
75113;DHT22;63692;47.338;8.520;2023-05-07T12:15:57;21.70;99.90
75113;DHT22;63692;47.338;8.520;2023-05-07T12:18:24;21.80;99.90
75113;DHT22;63692;47.338;8.520;2023-05-07T12:20:50;21.80;99.90
75113;DHT22;63692;47.338;8.520;2023-05-07T12:23:16;22.00;99.90
75113;DHT22;63692;47.338;8.520;2023-05-07T12:25:43;22.00;99.90
75113;DHT22;63692;47.338;8.520;2023-05-07T12:28:16;22.00;99.90
75113;DHT22;63692;47.338;8.520;2023-05-07T12:30:43;22.00;99.90
75113;DHT22;63692;47.338;8.520;2023-05-07T12:33:09;22.00;99.80
75113;DHT22;63692;47.338;8.520;2023-05-07T12:35:42;22.10;99.80
75113;DHT22;63692;47.338;8.520;2023-05-07T12:38:09;22.10;99.60
75113;DHT22;63692;47.338;8.520;2023-05-07T12:40:43;22.10;99.20
75113;DHT22;63692;47.338;8.520;2023-05-07T12:43:16;22.10;99.30
75113;DHT22;63692;47.338;8.520;2023-05-07T12:45:43;22.10;99.40
75113;DHT22;63692;47.338;8.520;2023-05-07T12:48:12;21.90;99.40
75113;DHT22;63692;47.338;8.520;2023-05-07T12:50:38;21.80;99.90
75113;DHT22;63692;47.338;8.520;2023-05-07T12:53:04;21.80;99.90
75113;DHT22;63692;47.338;8.520;2023-05-07T12:58:08;21.70;99.90
75113;DHT22;63692;47.338;8.520;2023-05-07T13:00:39;21.70;99.90
75113;DHT22;63692;47.338;8.520;2023-05-07T13:03:05;21.70;99.90
75113;DHT22;63692;47.338;8.520;2023-05-07T13:05:31;21.70;99.90
75113;DHT22;63692;47.338;8.520;2023-05-07T13:07:57;21.70;99.90
75113;DHT22;63692;47.338;8.520;2023-05-07T13:10:24;21.70;99.90
75113;DHT22;63692;47.338;8.520;2023-05-07T13:12:50;21.80;99.90
75113;DHT22;63692;47.338;8.520;2023-05-07T13:15:16;21.80;99.90
75113;DHT22;63692;47.338;8.520;2023-05-07T13:17:41;21.80;99.90
75113;DHT22;63692;47.338;8.520;2023-05-07T13:20:09;21.80;99.90
75113;DHT22;63692;47.338;8.520;2023-05-07T13:22:35;22.00;99.90
75113;DHT22;63692;47.338;8.520;2023-05-07T13:25:01;22.10;99.90
75113;DHT22;63692;47.338;8.520;2023-05-07T13:27:26;22.20;99.90
75113;DHT22;63692;47.338;8.520;2023-05-07T13:29:52;22.30;99.90
75113;DHT22;63692;47.338;8.520;2023-05-07T13:32:18;22.30;99.90
75113;DHT22;63692;47.338;8.520;2023-05-07T13:34:43;22.20;99.90
75113;DHT22;63692;47.338;8.520;2023-05-07T13:37:09;22.20;99.90
75113;DHT22;63692;47.338;8.520;2023-05-07T13:39:35;22.10;99.90
75113;DHT22;63692;47.338;8.520;2023-05-07T13:42:00;22.00;99.90
75113;DHT22;63692;47.338;8.520;2023-05-07T13:44:26;21.90;99.90
75113;DHT22;63692;47.338;8.520;2023-05-07T13:46:52;21.80;99.90
75113;DHT22;63692;47.338;8.520;2023-05-07T13:49:17;21.70;99.90
75113;DHT22;63692;47.338;8.520;2023-05-07T13:51:43;21.60;99.90
75113;DHT22;63692;47.338;8.520;2023-05-07T13:54:09;21.30;99.90
75113;DHT22;63692;47.338;8.520;2023-05-07T13:56:34;21.20;99.90
75113;DHT22;63692;47.338;8.520;2023-05-07T13:59:00;21.00;99.90
75113;DHT22;63692;47.338;8.520;2023-05-07T14:01:27;21.00;99.90
75113;DHT22;63692;47.338;8.520;2023-05-07T14:03:52;20.80;99.90
75113;DHT22;63692;47.338;8.520;2023-05-07T14:06:18;20.80;99.90
75113;DHT22;63692;47.338;8.520;2023-05-07T14:08:43;20.70;99.90
75113;DHT22;63692;47.338;8.520;2023-05-07T14:11:09;20.60;99.90
75113;DHT22;63692;47.338;8.520;2023-05-07T14:13:35;20.60;99.90
75113;DHT22;63692;47.338;8.520;2023-05-07T14:16:01;20.40;99.90
75113;DHT22;63692;47.338;8.520;2023-05-07T14:18:26;20.40;99.90
75113;DHT22;63692;47.338;8.520;2023-05-07T14:20:54;20.30;99.90
75113;DHT22;63692;47.338;8.520;2023-05-07T14:23:19;20.30;99.90
75113;DHT22;63692;47.338;8.520;2023-05-07T14:25:50;20.20;99.90
75113;DHT22;63692;47.338;8.520;2023-05-07T14:28:16;20.20;99.90
75113;DHT22;63692;47.338;8.520;2023-05-07T14:30:42;20.10;99.90
75113;DHT22;63692;47.338;8.520;2023-05-07T14:33:07;20.10;99.90
75113;DHT22;63692;47.338;8.520;2023-05-07T14:35:33;19.90;99.90
75113;DHT22;63692;47.338;8.520;2023-05-07T14:37:59;19.60;99.90
75113;DHT22;63692;47.338;8.520;2023-05-07T14:40:25;19.60;99.90
75113;DHT22;63692;47.338;8.520;2023-05-07T14:42:50;19.40;99.90
75113;DHT22;63692;47.338;8.520;2023-05-07T14:45:16;19.20;99.90
75113;DHT22;63692;47.338;8.520;2023-05-07T14:47:42;19.30;99.90
75113;DHT22;63692;47.338;8.520;2023-05-07T14:50:08;19.20;99.90
75113;DHT22;63692;47.338;8.520;2023-05-07T14:52:33;19.10;99.90
75113;DHT22;63692;47.338;8.520;2023-05-07T14:54:59;19.00;99.90
75113;DHT22;63692;47.338;8.520;2023-05-07T14:57:25;19.00;99.90
75113;DHT22;63692;47.338;8.520;2023-05-07T14:59:51;19.00;99.90
75113;DHT22;63692;47.338;8.520;2023-05-07T15:02:17;19.00;99.90
75113;DHT22;63692;47.338;8.520;2023-05-07T15:04:43;19.10;99.90
75113;DHT22;63692;47.338;8.520;2023-05-07T15:07:15;19.00;99.90
75113;DHT22;63692;47.338;8.520;2023-05-07T15:09:42;19.00;99.90
75113;DHT22;63692;47.338;8.520;2023-05-07T15:12:07;19.00;99.90
75113;DHT22;63692;47.338;8.520;2023-05-07T15:14:33;19.00;99.90
75113;DHT22;63692;47.338;8.520;2023-05-07T15:16:58;19.10;99.90
75113;DHT22;63692;47.338;8.520;2023-05-07T15:19:24;19.00;99.90
75113;DHT22;63692;47.338;8.520;2023-05-07T15:21:54;18.90;99.90
75113;DHT22;63692;47.338;8.520;2023-05-07T15:24:20;18.90;99.90
75113;DHT22;63692;47.338;8.520;2023-05-07T15:26:46;18.80;99.90
75113;DHT22;63692;47.338;8.520;2023-05-07T15:29:12;18.70;99.90
75113;DHT22;63692;47.338;8.520;2023-05-07T15:31:37;18.50;99.90
75113;DHT22;63692;47.338;8.520;2023-05-07T15:34:04;18.40;99.90
75113;DHT22;63692;47.338;8.520;2023-05-07T15:36:29;18.40;99.90
75113;DHT22;63692;47.338;8.520;2023-05-07T15:38:56;18.40;99.90
75113;DHT22;63692;47.338;8.520;2023-05-07T15:41:22;18.30;99.90
75113;DHT22;63692;47.338;8.520;2023-05-07T15:43:50;18.20;99.90
75113;DHT22;63692;47.338;8.520;2023-05-07T15:46:21;18.20;99.90
75113;DHT22;63692;47.338;8.520;2023-05-07T15:48:48;18.30;99.90
75113;DHT22;63692;47.338;8.520;2023-05-07T15:51:14;18.20;99.90
75113;DHT22;63692;47.338;8.520;2023-05-07T15:53:39;18.00;99.90
75113;DHT22;63692;47.338;8.520;2023-05-07T15:56:05;18.00;99.90
75113;DHT22;63692;47.338;8.520;2023-05-07T15:58:31;17.90;99.90
75113;DHT22;63692;47.338;8.520;2023-05-07T16:00:57;17.90;99.90
75113;DHT22;63692;47.338;8.520;2023-05-07T16:03:23;17.90;99.90
75113;DHT22;63692;47.338;8.520;2023-05-07T16:05:48;17.80;99.90
75113;DHT22;63692;47.338;8.520;2023-05-07T16:08:14;17.80;99.90
75113;DHT22;63692;47.338;8.520;2023-05-07T16:10:40;17.80;99.90
75113;DHT22;63692;47.338;8.520;2023-05-07T16:13:06;17.80;99.90
75113;DHT22;63692;47.338;8.520;2023-05-07T16:15:31;17.90;99.90
75113;DHT22;63692;47.338;8.520;2023-05-07T16:17:57;17.90;99.90
75113;DHT22;63692;47.338;8.520;2023-05-07T16:20:27;17.80;99.90
75113;DHT22;63692;47.338;8.520;2023-05-07T16:22:59;17.90;99.90
75113;DHT22;63692;47.338;8.520;2023-05-07T16:25:24;17.80;99.90
75113;DHT22;63692;47.338;8.520;2023-05-07T16:27:51;17.80;99.90
75113;DHT22;63692;47.338;8.520;2023-05-07T16:30:18;17.70;99.90
75113;DHT22;63692;47.338;8.520;2023-05-07T16:32:43;17.70;99.90
75113;DHT22;63692;47.338;8.520;2023-05-07T16:35:09;17.70;99.90
75113;DHT22;63692;47.338;8.520;2023-05-07T16:37:35;17.70;99.90
75113;DHT22;63692;47.338;8.520;2023-05-07T16:40:00;17.70;99.90
75113;DHT22;63692;47.338;8.520;2023-05-07T16:42:27;17.60;99.90
75113;DHT22;63692;47.338;8.520;2023-05-07T16:44:53;17.60;99.90
75113;DHT22;63692;47.338;8.520;2023-05-07T16:47:19;17.60;99.90
75113;DHT22;63692;47.338;8.520;2023-05-07T16:49:45;17.50;99.90
75113;DHT22;63692;47.338;8.520;2023-05-07T16:52:11;17.50;99.90
75113;DHT22;63692;47.338;8.520;2023-05-07T16:54:36;17.60;99.90
75113;DHT22;63692;47.338;8.520;2023-05-07T16:57:02;17.50;99.90
75113;DHT22;63692;47.338;8.520;2023-05-07T16:59:28;17.50;99.90
75113;DHT22;63692;47.338;8.520;2023-05-07T17:01:56;17.40;99.90
75113;DHT22;63692;47.338;8.520;2023-05-07T17:04:22;17.30;99.90
75113;DHT22;63692;47.338;8.520;2023-05-07T17:06:48;17.40;99.90
75113;DHT22;63692;47.338;8.520;2023-05-07T17:09:13;17.40;99.90
75113;DHT22;63692;47.338;8.520;2023-05-07T17:11:39;17.20;99.90
75113;DHT22;63692;47.338;8.520;2023-05-07T17:14:05;17.20;99.90
75113;DHT22;63692;47.338;8.520;2023-05-07T17:16:30;17.20;99.90
75113;DHT22;63692;47.338;8.520;2023-05-07T17:18:56;17.10;99.90
75113;DHT22;63692;47.338;8.520;2023-05-07T17:21:22;17.00;99.90
75113;DHT22;63692;47.338;8.520;2023-05-07T17:23:47;16.90;99.90
75113;DHT22;63692;47.338;8.520;2023-05-07T17:26:13;16.80;99.90
75113;DHT22;63692;47.338;8.520;2023-05-07T17:28:40;16.80;99.90
75113;DHT22;63692;47.338;8.520;2023-05-07T17:31:06;16.80;99.90
75113;DHT22;63692;47.338;8.520;2023-05-07T17:33:31;16.90;99.90
75113;DHT22;63692;47.338;8.520;2023-05-07T17:35:57;17.00;99.90
75113;DHT22;63692;47.338;8.520;2023-05-07T17:38:23;16.90;99.90
75113;DHT22;63692;47.338;8.520;2023-05-07T17:40:49;16.70;99.90
75113;DHT22;63692;47.338;8.520;2023-05-07T17:43:14;16.50;99.90
75113;DHT22;63692;47.338;8.520;2023-05-07T17:45:40;16.40;99.90
75113;DHT22;63692;47.338;8.520;2023-05-07T17:48:06;16.20;99.90
75113;DHT22;63692;47.338;8.520;2023-05-07T17:50:32;16.10;99.90
75113;DHT22;63692;47.338;8.520;2023-05-07T17:52:57;16.00;99.90
75113;DHT22;63692;47.338;8.520;2023-05-07T17:55:23;15.90;99.90
75113;DHT22;63692;47.338;8.520;2023-05-07T17:57:49;15.80;99.90
75113;DHT22;63692;47.338;8.520;2023-05-07T18:00:15;15.70;99.90
75113;DHT22;63692;47.338;8.520;2023-05-07T18:02:40;15.60;99.90
75113;DHT22;63692;47.338;8.520;2023-05-07T18:05:07;15.60;99.90
75113;DHT22;63692;47.338;8.520;2023-05-07T18:07:36;15.50;99.90
75113;DHT22;63692;47.338;8.520;2023-05-07T18:10:02;15.50;99.90
75113;DHT22;63692;47.338;8.520;2023-05-07T18:14:56;15.40;99.90
75113;DHT22;63692;47.338;8.520;2023-05-07T18:17:22;15.40;99.90
75113;DHT22;63692;47.338;8.520;2023-05-07T18:19:52;15.40;99.90
75113;DHT22;63692;47.338;8.520;2023-05-07T18:22:17;15.40;99.90
75113;DHT22;63692;47.338;8.520;2023-05-07T18:24:43;15.40;99.90
75113;DHT22;63692;47.338;8.520;2023-05-07T18:29:44;15.40;99.90
75113;DHT22;63692;47.338;8.520;2023-05-07T18:32:10;15.40;99.90
75113;DHT22;63692;47.338;8.520;2023-05-07T18:34:36;15.40;99.90
75113;DHT22;63692;47.338;8.520;2023-05-07T18:37:01;15.40;99.90
75113;DHT22;63692;47.338;8.520;2023-05-07T18:44:23;15.30;99.90
75113;DHT22;63692;47.338;8.520;2023-05-07T18:46:49;15.30;99.90
75113;DHT22;63692;47.338;8.520;2023-05-07T18:56:38;15.30;99.90
75113;DHT22;63692;47.338;8.520;2023-05-07T18:59:03;15.30;99.90
75113;DHT22;63692;47.338;8.520;2023-05-07T19:01:29;15.30;99.90
75113;DHT22;63692;47.338;8.520;2023-05-07T19:06:26;15.30;99.90
75113;DHT22;63692;47.338;8.520;2023-05-07T19:08:52;15.30;99.90
75113;DHT22;63692;47.338;8.520;2023-05-07T19:11:18;15.30;99.90
75113;DHT22;63692;47.338;8.520;2023-05-07T19:26:01;15.10;99.90
75113;DHT22;63692;47.338;8.520;2023-05-07T19:30:54;15.10;99.90
75113;DHT22;63692;47.338;8.520;2023-05-07T19:33:21;15.20;99.90
75113;DHT22;63692;47.338;8.520;2023-05-07T19:35:47;15.10;99.90
75113;DHT22;63692;47.338;8.520;2023-05-07T19:38:12;15.10;99.90
75113;DHT22;63692;47.338;8.520;2023-05-07T19:40:38;15.10;99.90
75113;DHT22;63692;47.338;8.520;2023-05-07T19:43:04;15.10;99.90
75113;DHT22;63692;47.338;8.520;2023-05-07T19:45:29;15.00;99.90
75113;DHT22;63692;47.338;8.520;2023-05-07T19:47:56;15.00;99.90
75113;DHT22;63692;47.338;8.520;2023-05-07T19:50:22;15.00;99.90
75113;DHT22;63692;47.338;8.520;2023-05-07T19:52:48;14.90;99.90
75113;DHT22;63692;47.338;8.520;2023-05-07T19:55:13;14.90;99.90
75113;DHT22;63692;47.338;8.520;2023-05-07T19:57:42;14.90;99.90
75113;DHT22;63692;47.338;8.520;2023-05-07T20:02:35;14.70;99.90
75113;DHT22;63692;47.338;8.520;2023-05-07T20:05:01;14.70;99.90
75113;DHT22;63692;47.338;8.520;2023-05-07T20:07:26;14.70;99.90
75113;DHT22;63692;47.338;8.520;2023-05-07T20:09:52;14.70;99.90
75113;DHT22;63692;47.338;8.520;2023-05-07T20:12:17;14.60;99.90
75113;DHT22;63692;47.338;8.520;2023-05-07T20:14:45;14.60;99.90
75113;DHT22;63692;47.338;8.520;2023-05-07T20:17:11;14.60;99.90
